Time;durP1;ratioP1;P1;durP2;ratioP2;P2;SDS_P1;SDS_P2;PMS_P1;PMS_P2;Temp;Humidity;BMP_temperature;BMP_pressure;BME280_temperature;BME280_humidity;BME280_pressure;Samples;Min_cycle;Max_cycle;Signal;HPM_P1;HPM_P2
2021/05/14 00:00:10;;;;;;;6.13;1.90;;;;;;;11.37;61.74;93255.16;5130662;27;20422;-74
2021/05/14 00:02:38;;;;;;;3.40;1.60;;;;;;;11.42;60.83;93255.72;5131048;27;20471;-74
2021/05/14 00:05:05;;;;;;;7.30;1.80;;;;;;;11.50;61.85;93250.59;5127750;27;20019;-74
2021/05/14 00:07:30;;;;;;;5.85;2.45;;;;;;;11.43;62.04;93259.94;5127455;27;20030;-74
2021/05/14 00:09:55;;;;;;;8.38;1.67;;;;;;;11.29;61.79;93251.47;5111685;28;20080;-74
2021/05/14 00:12:21;;;;;;;4.90;1.73;;;;;;;11.27;60.95;93253.69;5129707;27;20019;-74
2021/05/14 00:14:46;;;;;;;4.93;1.13;;;;;;;11.30;60.47;93258.38;5131290;27;20079;-74
2021/05/14 00:17:12;;;;;;;2.88;1.35;;;;;;;11.30;61.05;93247.69;5127696;27;20031;-74
2021/05/14 00:19:37;;;;;;;2.05;1.42;;;;;;;11.31;61.59;93251.91;5111317;28;20548;-74
2021/05/14 00:22:02;;;;;;;5.20;1.67;;;;;;;11.31;61.63;93246.56;5127490;27;20058;-74
2021/05/14 00:24:28;;;;;;;5.05;1.60;;;;;;;11.34;62.09;93251.25;5111400;28;20031;-74
2021/05/14 00:26:53;;;;;;;2.42;1.58;;;;;;;11.34;61.57;93251.25;5114505;27;20076;-74
2021/05/14 00:29:19;;;;;;;3.45;1.60;;;;;;;11.31;60.88;93246.56;5130109;27;20031;-74
2021/05/14 00:31:44;;;;;;;2.88;1.50;;;;;;;11.27;60.47;93248.34;5128717;27;20456;-74
2021/05/14 00:34:09;;;;;;;5.40;1.70;;;;;;;11.29;60.76;93254.13;5130653;27;20102;-74
2021/05/14 00:36:35;;;;;;;4.75;1.65;;;;;;;11.23;61.89;93263.47;5131603;27;20023;-74
2021/05/14 00:39:00;;;;;;;6.30;1.80;;;;;;;11.27;62.39;93269.69;5127272;27;20032;-74
2021/05/14 00:41:26;;;;;;;5.45;1.40;;;;;;;11.29;61.59;93275.47;5127885;27;20407;-74
2021/05/14 00:43:53;;;;;;;5.07;1.63;;;;;;;11.20;61.12;93261.47;5127244;27;20114;-74
2021/05/14 00:46:18;;;;;;;6.40;1.83;;;;;;;11.22;61.60;93275.25;5115714;27;20439;-74
2021/05/14 00:48:43;;;;;;;2.10;1.30;;;;;;;11.21;61.63;93287.03;5112317;27;20111;-74
2021/05/14 00:51:09;;;;;;;6.70;1.63;;;;;;;11.18;61.09;93285.03;5130545;27;20075;-74
2021/05/14 00:53:34;;;;;;;7.95;1.38;;;;;;;11.10;60.70;93284.00;5113534;27;20035;-74
2021/05/14 00:56:03;;;;;;;2.45;1.27;;;;;;;11.03;61.09;93279.22;5129947;27;20022;-74
2021/05/14 00:58:28;;;;;;;4.90;1.70;;;;;;;11.04;61.65;93288.75;5125773;27;20030;-73
2021/05/14 01:00:54;;;;;;;5.13;1.65;;;;;;;10.92;61.02;93277.28;5127859;27;20027;-73
2021/05/14 01:03:19;;;;;;;6.93;1.48;;;;;;;10.94;61.56;93281.16;5113580;27;20490;-73
2021/05/14 01:05:45;;;;;;;3.20;1.30;;;;;;;10.92;61.98;93294.06;5130987;27;20019;-73
2021/05/14 01:08:11;;;;;;;6.22;1.75;;;;;;;10.90;60.40;93290.94;5117283;27;20024;-74
2021/05/14 01:10:37;;;;;;;6.18;1.70;;;;;;;10.91;60.19;93292.50;5121085;27;20023;-74
2021/05/14 01:13:02;;;;;;;5.10;1.60;;;;;;;10.90;60.48;93282.94;5126649;27;20493;-73
2021/05/14 01:15:28;;;;;;;3.42;1.45;;;;;;;10.89;60.44;93275.25;5118031;27;20451;-73
2021/05/14 01:17:53;;;;;;;6.75;1.48;;;;;;;10.91;61.03;93284.50;5117853;27;20448;-73
2021/05/14 01:20:19;;;;;;;8.60;1.50;;;;;;;10.89;60.94;93288.59;5120363;27;20494;-73
2021/05/14 01:22:44;;;;;;;2.72;1.33;;;;;;;10.80;60.88;93283.34;5129917;27;20054;-73
2021/05/14 01:25:10;;;;;;;4.05;1.60;;;;;;;10.79;61.40;93290.56;5129916;27;20023;-74
2021/05/14 01:27:36;;;;;;;12.77;1.60;;;;;;;10.74;61.31;93272.09;5120547;27;20023;-73
2021/05/14 01:30:01;;;;;;;3.42;1.40;;;;;;;10.74;61.12;93268.66;5126533;27;20551;-74
2021/05/14 01:32:27;;;;;;;3.60;1.40;;;;;;;10.71;62.34;93277.34;5119229;28;20027;-74
2021/05/14 01:34:54;;;;;;;8.05;1.40;;;;;;;10.67;62.03;93268.44;5128783;27;20041;-74
2021/05/14 01:37:20;;;;;;;7.70;1.30;;;;;;;10.68;62.36;93275.31;5112046;28;20027;-74
2021/05/14 01:39:45;;;;;;;6.07;1.50;;;;;;;10.70;62.82;93275.75;5129702;27;20075;-73
2021/05/14 01:42:10;;;;;;;2.75;1.10;;;;;;;10.66;62.45;93280.19;5119541;28;20421;-73
2021/05/14 01:44:36;;;;;;;4.63;1.30;;;;;;;10.65;62.01;93279.41;5124834;28;20032;-73
2021/05/14 01:47:01;;;;;;;6.13;1.50;;;;;;;10.64;62.05;93294.63;5126298;28;20027;-73
2021/05/14 01:49:27;;;;;;;4.32;2.05;;;;;;;10.66;63.01;93293.50;5129208;28;20050;-73
2021/05/14 01:51:52;;;;;;;2.38;1.60;;;;;;;10.61;63.30;93281.94;5129753;28;20168;-73
2021/05/14 01:54:18;;;;;;;5.68;1.50;;;;;;;10.60;63.53;93288.41;5129697;28;20043;-73
2021/05/14 01:56:48;;;;;;;4.80;1.55;;;;;;;10.55;64.04;93283.25;5127388;28;20371;-73
2021/05/14 01:59:14;;;;;;;2.40;1.88;;;;;;;10.50;64.08;93282.66;5120304;28;20026;-73
2021/05/14 02:01:40;;;;;;;2.78;1.55;;;;;;;10.56;64.20;93287.50;5125811;28;20023;-73
2021/05/14 02:04:06;;;;;;;10.15;2.67;;;;;;;10.54;63.44;93286.25;5126102;28;20027;-73
2021/05/14 02:06:31;;;;;;;5.22;1.48;;;;;;;10.43;63.01;93289.28;5113139;28;20031;-73
2021/05/14 02:08:57;;;;;;;4.70;1.58;;;;;;;10.42;62.67;93278.97;5127581;28;20452;-73
2021/05/14 02:11:22;;;;;;;5.35;1.77;;;;;;;10.46;62.87;93293.19;5125455;27;20034;-73
2021/05/14 02:13:47;;;;;;;3.25;1.25;;;;;;;10.52;63.65;93293.78;5125577;28;20042;-74
2021/05/14 02:16:13;;;;;;;3.55;1.67;;;;;;;10.49;63.05;93291.78;5125724;27;20019;-74
2021/05/14 02:18:39;;;;;;;3.25;1.38;;;;;;;10.46;62.64;93295.06;5127128;27;20463;-73
2021/05/14 02:21:06;;;;;;;5.07;1.50;;;;;;;10.45;62.81;93296.97;5130286;27;20055;-73
2021/05/14 02:23:31;;;;;;;3.20;1.50;;;;;;;10.40;62.29;93310.47;5126387;28;20028;-73
2021/05/14 02:25:57;;;;;;;5.07;1.65;;;;;;;10.41;62.30;93304.06;5124608;27;20023;-74
2021/05/14 02:28:23;;;;;;;4.95;1.35;;;;;;;10.47;62.25;93302.75;5130240;27;20023;-74
2021/05/14 02:30:48;;;;;;;4.65;1.50;;;;;;;10.47;63.13;93296.66;5126884;28;20023;-74
2021/05/14 02:33:14;;;;;;;3.03;1.33;;;;;;;10.45;63.69;93291.66;5112566;28;20039;-74
2021/05/14 02:35:40;;;;;;;6.85;1.85;;;;;;;10.44;63.52;93298.88;5127227;27;20024;-74
2021/05/14 02:38:06;;;;;;;10.30;2.00;;;;;;;10.40;63.81;93294.50;5116974;27;20103;-74
2021/05/14 02:40:33;;;;;;;2.97;1.30;;;;;;;10.35;64.12;93300.03;5130075;27;20103;-74
2021/05/14 02:42:59;;;;;;;5.20;1.50;;;;;;;10.32;64.54;93309.44;5126887;27;20034;-74
2021/05/14 02:45:25;;;;;;;4.68;1.52;;;;;;;10.27;64.77;93296.28;5132136;27;20080;-74
2021/05/14 02:47:51;;;;;;;4.47;1.65;;;;;;;10.21;64.44;93303.69;5129301;27;20035;-74
2021/05/14 02:50:16;;;;;;;3.90;1.40;;;;;;;10.21;64.87;93301.00;5131299;27;20054;-73
2021/05/14 02:52:42;;;;;;;3.90;1.20;;;;;;;10.14;65.17;93298.09;5114025;27;20032;-73
2021/05/14 02:55:09;;;;;;;3.70;1.27;;;;;;;10.10;65.32;93297.19;5118842;27;20078;-73
2021/05/14 02:57:35;;;;;;;7.47;1.40;;;;;;;10.10;65.06;93309.72;5123244;27;20027;-73
2021/05/14 03:00:01;;;;;;;7.90;1.33;;;;;;;10.09;64.77;93298.28;5125930;27;20107;-74
2021/05/14 03:02:26;;;;;;;2.95;1.30;;;;;;;10.07;65.42;93311.13;5128927;27;20536;-74
2021/05/14 03:04:52;;;;;;;2.20;1.27;;;;;;;10.04;64.93;93309.13;5119463;27;20023;-74
2021/05/14 03:07:19;;;;;;;2.83;1.08;;;;;;;10.06;64.94;93304.25;5133300;27;20035;-74
2021/05/14 03:09:46;;;;;;;3.35;1.38;;;;;;;10.05;64.90;93300.03;5131668;27;20019;-74
2021/05/14 03:12:11;;;;;;;2.90;1.15;;;;;;;10.05;64.87;93316.00;5128676;27;20031;-74
2021/05/14 03:14:37;;;;;;;4.65;1.00;;;;;;;10.08;64.91;93314.59;5117330;27;20031;-74
2021/05/14 03:17:03;;;;;;;3.67;1.63;;;;;;;10.03;65.22;93302.22;5122475;27;20027;-74
2021/05/14 03:19:28;;;;;;;3.70;2.05;;;;;;;9.98;65.44;93323.72;5127785;27;20084;-74
2021/05/14 03:21:54;;;;;;;5.45;1.30;;;;;;;9.93;65.07;93324.69;5119118;27;20043;-74
2021/05/14 03:24:20;;;;;;;9.30;1.25;;;;;;;9.89;65.14;93317.66;5131722;27;20019;-73
2021/05/14 03:26:48;;;;;;;6.22;1.25;;;;;;;9.89;65.50;93315.00;5132358;27;20465;-74
2021/05/14 03:29:13;;;;;;;5.97;1.48;;;;;;;9.87;65.64;93325.19;5129466;27;20019;-74
2021/05/14 03:31:39;;;;;;;5.97;1.70;;;;;;;9.90;64.92;93335.22;5112765;28;20402;-73
2021/05/14 03:34:04;;;;;;;6.20;1.20;;;;;;;9.78;65.98;93339.31;5119990;27;20035;-73
2021/05/14 03:36:30;;;;;;;9.10;1.38;;;;;;;9.77;66.14;93327.13;5124586;27;20023;-73
2021/05/14 03:38:57;;;;;;;3.75;1.23;;;;;;;9.76;66.09;93330.09;5131670;27;20110;-73
2021/05/14 03:43:54;;;;;;;9.80;1.60;;;;;;;9.83;66.08;93330.34;5117744;27;20023;-73
2021/05/14 03:46:19;;;;;;;4.40;1.30;;;;;;;9.87;66.78;93330.50;5128139;27;20406;-73
2021/05/14 03:48:44;;;;;;;5.97;1.42;;;;;;;9.93;66.91;93322.03;5131624;27;20474;-74
2021/05/14 03:51:10;;;;;;;7.80;1.95;;;;;;;10.01;67.11;93331.06;5131422;27;20121;-73
2021/05/14 03:53:35;;;;;;;9.70;2.13;;;;;;;10.09;67.11;93327.56;5124275;27;20538;-73
2021/05/14 03:56:01;;;;;;;6.43;2.42;;;;;;;10.15;67.03;93323.63;5125608;27;20497;-73
2021/05/14 03:58:26;;;;;;;7.28;1.70;;;;;;;10.21;67.17;93314.34;5122170;27;20023;-73
2021/05/14 04:00:52;;;;;;;5.72;1.63;;;;;;;10.29;66.97;93317.28;5127904;27;20033;-74
2021/05/14 04:03:17;;;;;;;3.83;1.65;;;;;;;10.35;66.75;93318.66;5127960;27;20116;-73
2021/05/14 04:05:43;;;;;;;6.72;1.48;;;;;;;10.38;66.18;93323.34;5112089;28;20492;-73
2021/05/14 04:08:10;;;;;;;2.53;1.27;;;;;;;10.49;66.08;93326.41;5129100;27;20023;-73
2021/05/14 04:15:46;;;;;;;4.93;1.90;;;;;;;10.38;67.56;93328.66;5123632;27;20125;-73
2021/05/14 04:18:11;;;;;;;8.70;1.95;;;;;;;10.41;67.48;93322.69;5122323;27;20047;-73
2021/05/14 04:20:37;;;;;;;17.05;2.97;;;;;;;10.40;67.36;93331.78;5129325;27;20092;-73
2021/05/14 04:23:03;;;;;;;12.00;2.45;;;;;;;10.40;67.86;93345.09;5129388;27;20033;-73
2021/05/14 04:25:31;;;;;;;8.98;2.50;;;;;;;10.21;68.83;93343.63;5128814;27;20023;-72
2021/05/14 04:27:56;;;;;;;10.95;2.92;;;;;;;10.28;68.40;93345.81;5129334;27;20031;-73
2021/05/14 04:30:22;;;;;;;8.55;2.40;;;;;;;10.27;68.25;93349.56;5130636;27;20087;-73
2021/05/14 04:32:47;;;;;;;9.27;2.63;;;;;;;10.35;68.63;93339.97;5130431;27;20103;-73
2021/05/14 04:35:12;;;;;;;9.88;4.07;;;;;;;10.49;68.63;93351.16;5120349;27;20023;-72
2021/05/14 04:37:38;;;;;;;11.70;3.13;;;;;;;10.63;67.69;93346.34;5122696;27;20032;-72
2021/05/14 04:40:04;;;;;;;14.10;3.13;;;;;;;10.71;67.35;93357.28;5125029;27;20403;-74
2021/05/14 04:42:29;;;;;;;9.57;2.50;;;;;;;10.80;67.22;93360.66;5130235;27;20019;-75
2021/05/14 04:44:54;;;;;;;16.17;4.63;;;;;;;10.91;66.68;93367.16;5123184;27;20019;-73
2021/05/14 04:47:20;;;;;;;5.97;2.83;;;;;;;10.89;66.11;93364.03;5129779;27;20023;-73
2021/05/14 04:49:45;;;;;;;13.93;3.92;;;;;;;10.90;66.43;93370.94;5128146;27;20062;-73
2021/05/14 04:52:21;;;;;;;13.48;4.05;;;;;;;10.96;67.21;93369.63;5123523;27;20039;-73
2021/05/14 04:54:47;;;;;;;4.43;2.50;;;;;;;11.00;66.43;93367.84;5119258;27;20419;-73
2021/05/14 04:57:13;;;;;;;16.77;3.53;;;;;;;11.14;66.57;93358.81;5129652;27;20062;-73
2021/05/14 04:59:42;;;;;;;15.23;3.45;;;;;;;11.21;66.85;93362.50;5130107;27;20474;-73
2021/05/14 05:02:08;;;;;;;12.50;5.15;;;;;;;11.22;67.14;93357.94;5120565;27;20088;-73
2021/05/14 05:04:37;;;;;;;10.00;3.67;;;;;;;11.33;67.00;93367.06;5112377;27;20035;-73
2021/05/14 05:07:08;;;;;;;12.55;3.40;;;;;;;11.42;66.58;93375.78;5127706;27;20414;-73
2021/05/14 05:09:35;;;;;;;7.97;3.63;;;;;;;11.48;66.86;93378.22;5116206;27;20114;-73
2021/05/14 05:12:01;;;;;;;9.20;3.10;;;;;;;11.49;66.77;93380.59;5117847;27;20023;-73
2021/05/14 05:14:27;;;;;;;11.27;3.90;;;;;;;11.60;65.70;93384.41;5124768;27;20033;-73
2021/05/14 05:16:53;;;;;;;10.38;3.22;;;;;;;11.69;65.50;93394.22;5126332;27;20054;-73
2021/05/14 05:19:19;;;;;;;14.27;4.20;;;;;;;11.77;65.61;93374.63;5126437;27;20063;-73
2021/05/14 05:21:44;;;;;;;14.38;5.00;;;;;;;11.85;65.77;93381.78;5120150;27;20498;-73
2021/05/14 05:24:10;;;;;;;10.40;4.40;;;;;;;11.94;64.80;93387.03;5127753;27;20122;-73
2021/05/14 05:26:35;;;;;;;11.93;4.53;;;;;;;12.06;64.43;93381.69;5126602;27;20027;-73
2021/05/14 05:29:01;;;;;;;12.10;4.97;;;;;;;12.21;64.05;93383.72;5128034;27;20019;-73
2021/05/14 05:31:26;;;;;;;11.38;3.75;;;;;;;12.38;63.37;93372.00;5129768;27;20047;-73
2021/05/14 05:33:52;;;;;;;8.10;4.28;;;;;;;12.55;63.32;93384.34;5129133;27;20055;-73
2021/05/14 05:36:17;;;;;;;17.02;4.75;;;;;;;12.76;62.44;93389.56;5111284;28;20477;-73
2021/05/14 05:38:43;;;;;;;16.48;4.57;;;;;;;12.90;61.43;93397.19;5119739;27;20395;-73
2021/05/14 05:41:08;;;;;;;8.85;4.13;;;;;;;13.02;61.16;93402.50;5128675;28;20054;-73
2021/05/14 05:43:35;;;;;;;20.42;4.90;;;;;;;13.11;60.20;93398.91;5116178;28;20054;-73
2021/05/14 05:46:00;;;;;;;18.13;4.22;;;;;;;13.20;60.23;93399.56;5128038;28;20405;-73
2021/05/14 05:48:25;;;;;;;17.13;4.97;;;;;;;13.26;59.15;93411.59;5123511;27;20106;-73
2021/05/14 05:50:51;;;;;;;15.05;3.35;;;;;;;13.35;59.58;93414.94;5118160;27;20423;-73
2021/05/14 05:53:16;;;;;;;11.73;3.72;;;;;;;13.38;58.05;93418.81;5129140;27;20103;-74
2021/05/14 05:55:42;;;;;;;13.82;4.20;;;;;;;13.43;58.71;93408.66;5130628;27;20042;-74
2021/05/14 05:58:13;;;;;;;13.20;4.43;;;;;;;13.58;58.58;93425.09;5130379;27;20045;-74
2021/05/14 06:00:39;;;;;;;13.90;4.20;;;;;;;13.67;58.04;93433.75;5130529;27;20058;-74
2021/05/14 06:03:08;;;;;;;11.88;3.55;;;;;;;13.68;55.89;93421.13;5130447;27;20295;-74
2021/05/14 06:05:33;;;;;;;14.00;4.30;;;;;;;13.69;55.76;93423.47;5129173;27;20011;-73
2021/05/14 06:07:58;;;;;;;15.00;3.92;;;;;;;13.79;56.06;93420.28;5128934;28;20168;-73
2021/05/14 06:10:25;;;;;;;14.90;4.88;;;;;;;13.94;56.40;93423.31;5121324;27;20490;-73
2021/05/14 06:12:51;;;;;;;11.20;3.85;;;;;;;14.03;55.74;93411.34;5117367;27;20032;-73
2021/05/14 06:15:17;;;;;;;15.65;3.67;;;;;;;14.15;55.40;93417.75;5114930;27;20050;-73
2021/05/14 06:17:42;;;;;;;10.32;3.17;;;;;;;14.25;55.61;93418.00;5114032;28;20036;-73
2021/05/14 06:20:11;;;;;;;10.73;2.63;;;;;;;14.38;54.80;93428.63;5127118;27;20057;-72
2021/05/14 06:22:37;;;;;;;7.05;2.65;;;;;;;14.48;53.54;93436.13;5132832;27;20146;-73
2021/05/14 06:25:03;;;;;;;5.88;2.80;;;;;;;14.60;52.38;93427.25;5132765;27;20035;-73
2021/05/14 06:27:29;;;;;;;14.43;3.70;;;;;;;14.70;52.75;93402.56;5136801;27;20399;-74
2021/05/14 06:29:54;;;;;;;14.85;3.95;;;;;;;14.82;53.23;93397.09;5122009;27;20026;-73
2021/05/14 06:32:20;;;;;;;20.15;3.35;;;;;;;14.90;53.67;93418.69;5130782;27;20057;-79
2021/05/14 06:34:45;;;;;;;8.75;2.92;;;;;;;14.95;55.39;93405.00;5127519;27;20491;-83
2021/05/14 06:37:12;;;;;;;8.85;2.20;;;;;;;15.03;55.07;93412.84;5116015;27;20030;-82
2021/05/14 06:39:37;;;;;;;10.85;2.80;;;;;;;15.11;53.46;93404.97;5128875;27;20163;-81
2021/05/14 06:42:03;;;;;;;12.80;3.13;;;;;;;15.05;53.34;93412.50;5131640;27;20060;-83
2021/05/14 06:44:29;;;;;;;15.98;3.63;;;;;;;14.48;54.98;93416.59;5130464;27;20023;-83
2021/05/14 06:46:54;;;;;;;11.70;3.17;;;;;;;14.44;55.05;93401.19;5129973;27;20223;-82
2021/05/14 06:49:22;;;;;;;7.63;1.65;;;;;;;14.49;49.27;93408.22;5132217;27;20150;-79
2021/05/14 06:51:47;;;;;;;10.63;2.65;;;;;;;14.43;52.46;93410.38;5129555;27;20504;-85
2021/05/14 06:54:13;;;;;;;22.90;3.40;;;;;;;14.37;53.36;93405.59;5132032;27;20115;-85
2021/05/14 06:56:38;;;;;;;11.93;2.55;;;;;;;14.40;52.11;93416.41;5132135;27;20049;-83
2021/05/14 06:59:04;;;;;;;3.17;1.23;;;;;;;14.47;47.29;93420.41;5128848;27;20020;-80
2021/05/14 07:01:29;;;;;;;4.30;0.82;;;;;;;14.51;47.06;93421.25;5129147;27;20031;-79
2021/05/14 07:03:55;;;;;;;6.88;0.90;;;;;;;14.59;46.47;93421.13;5129000;27;20027;-77
2021/05/14 07:06:20;;;;;;;4.65;0.88;;;;;;;14.69;45.78;93414.41;5119962;27;20023;-76
2021/05/14 07:08:47;;;;;;;4.82;1.00;;;;;;;14.69;46.15;93410.97;5131168;27;20117;-78
2021/05/14 07:11:13;;;;;;;1.33;0.60;;;;;;;14.74;45.28;93410.72;5128467;27;20028;-78
2021/05/14 07:13:40;;;;;;;4.55;1.10;;;;;;;14.81;45.68;93408.16;5130122;27;20136;-80
2021/05/14 07:16:05;;;;;;;1.52;0.40;;;;;;;14.94;43.75;93406.94;5131640;27;20046;-81
2021/05/14 07:18:32;;;;;;;0.98;0.47;;;;;;;15.14;42.96;93398.88;5131880;27;20019;-84
2021/05/14 07:20:58;;;;;;;1.17;0.57;;;;;;;15.24;43.93;93403.69;5129020;27;20059;-78
2021/05/14 07:23:23;;;;;;;1.40;0.52;;;;;;;15.46;44.67;93383.41;5126645;27;20034;-79
2021/05/14 07:25:48;;;;;;;1.42;0.60;;;;;;;15.65;43.80;93404.09;5127493;27;20119;-76
2021/05/14 07:28:14;;;;;;;3.85;0.57;;;;;;;15.72;43.06;93403.47;5120563;27;20432;-78
2021/05/14 07:30:39;;;;;;;1.23;0.50;;;;;;;15.81;43.53;93404.81;5120370;27;20024;-77
2021/05/14 07:33:05;;;;;;;3.33;0.90;;;;;;;15.99;45.29;93405.09;5125984;27;20035;-75
2021/05/14 07:35:30;;;;;;;0.82;0.43;;;;;;;16.01;40.35;93408.22;5146408;27;20059;-75
2021/05/14 07:37:55;;;;;;;1.65;0.70;;;;;;;16.13;42.50;93385.00;5128330;27;20023;-74
2021/05/14 07:40:21;;;;;;;3.60;0.50;;;;;;;16.34;42.33;93404.16;5128259;27;20375;-81
2021/05/14 07:42:50;;;;;;;0.90;0.20;;;;;;;16.33;40.18;93407.97;5114611;27;20023;-79
2021/05/14 07:45:15;;;;;;;3.60;0.68;;;;;;;16.32;39.71;93401.03;5130513;27;20035;-76
2021/05/14 07:47:41;;;;;;;0.75;0.40;;;;;;;16.29;38.16;93387.56;5128548;27;20022;-75
2021/05/14 07:50:07;;;;;;;2.13;0.40;;;;;;;16.18;37.65;93390.84;5129867;27;20031;-81
2021/05/14 07:52:33;;;;;;;1.70;0.45;;;;;;;16.00;38.15;93395.94;5123498;27;20042;-80
2021/05/14 07:54:59;;;;;;;3.50;0.95;;;;;;;15.91;38.84;93416.09;5132086;27;20015;-82
2021/05/14 07:57:25;;;;;;;5.70;0.63;;;;;;;15.76;37.53;93399.72;5130457;27;20469;-76
2021/05/14 07:59:51;;;;;;;0.95;0.38;;;;;;;15.62;39.07;93420.94;5130679;27;20023;-75
2021/05/14 08:02:16;;;;;;;2.95;0.57;;;;;;;15.49;38.52;93398.81;5130595;27;20410;-80
2021/05/14 08:04:43;;;;;;;3.35;0.43;;;;;;;15.44;39.28;93420.56;5121992;27;20468;-74
2021/05/14 08:07:08;;;;;;;2.53;0.70;;;;;;;15.29;38.33;93410.72;5127029;27;20409;-78
2021/05/14 08:09:33;;;;;;;6.82;0.70;;;;;;;15.24;39.27;93414.44;5126570;27;20118;-79
2021/05/14 08:12:02;;;;;;;2.42;0.40;;;;;;;15.22;39.02;93411.31;5129710;27;20100;-79
2021/05/14 08:14:27;;;;;;;1.20;0.70;;;;;;;15.16;38.67;93407.34;5131361;27;20015;-79
2021/05/14 08:16:53;;;;;;;3.83;0.63;;;;;;;15.14;39.29;93399.69;5127141;27;20405;-78
2021/05/14 08:19:18;;;;;;;1.05;0.50;;;;;;;15.11;41.02;93400.38;5127817;27;20019;-82
2021/05/14 08:21:45;;;;;;;1.38;0.43;;;;;;;15.16;39.81;93393.94;5130024;27;20445;-81
2021/05/14 08:24:12;;;;;;;3.65;0.80;;;;;;;15.16;41.05;93404.69;5130317;27;20031;-80
2021/05/14 08:26:39;;;;;;;1.27;0.40;;;;;;;15.21;40.30;93388.31;5126948;27;20130;-81
2021/05/14 08:29:08;;;;;;;5.90;0.70;;;;;;;15.37;38.46;93399.75;5128526;27;20024;-79
2021/05/14 08:31:35;;;;;;;1.20;0.40;;;;;;;15.55;38.74;93407.34;5130108;27;20079;-76
2021/05/14 08:34:03;;;;;;;0.75;0.38;;;;;;;15.65;36.29;93396.03;5128294;27;20027;-77
2021/05/14 08:36:28;;;;;;;2.58;0.60;;;;;;;15.63;38.54;93403.66;5119221;27;20027;-73
2021/05/14 08:38:54;;;;;;;3.58;0.68;;;;;;;15.64;39.11;93405.22;5131014;27;20491;-73
2021/05/14 08:41:20;;;;;;;5.32;0.70;;;;;;;15.58;40.52;93403.97;5129349;27;20015;-73
2021/05/14 08:43:47;;;;;;;2.17;0.60;;;;;;;15.53;39.91;93414.97;5110314;28;20616;-73
2021/05/14 08:46:14;;;;;;;1.63;0.80;;;;;;;15.57;39.18;93413.16;5126260;27;20474;-74
2021/05/14 08:48:41;;;;;;;2.03;0.70;;;;;;;15.57;39.00;93410.47;5129124;27;20107;-78
2021/05/14 08:51:08;;;;;;;0.68;0.43;;;;;;;15.53;37.38;93417.66;5127793;27;20183;-73
2021/05/14 08:53:35;;;;;;;1.45;0.55;;;;;;;15.57;38.36;93413.16;5127470;27;20023;-72
2021/05/14 08:56:01;;;;;;;1.02;0.30;;;;;;;15.78;38.04;93405.53;5126980;27;20612;-72
2021/05/14 08:58:28;;;;;;;2.00;0.63;;;;;;;15.86;38.80;93427.94;5129105;27;20114;-73
2021/05/14 09:00:54;;;;;;;2.38;0.50;;;;;;;16.07;37.39;93413.31;5129182;27;20034;-72
2021/05/14 09:03:20;;;;;;;1.27;0.50;;;;;;;16.19;39.03;93408.53;5129662;27;20027;-72
2021/05/14 09:05:47;;;;;;;7.18;0.80;;;;;;;16.42;40.01;93410.41;5114533;27;20080;-76
2021/05/14 09:08:12;;;;;;;1.60;0.70;;;;;;;16.62;37.20;93421.88;5129562;27;20023;-75
2021/05/14 09:10:38;;;;;;;2.88;0.45;;;;;;;16.69;35.67;93434.66;5129581;27;20029;-74
2021/05/14 09:13:11;;;;;;;3.95;0.85;;;;;;;16.78;35.28;93430.56;5126512;27;20098;-74
2021/05/14 09:15:38;;;;;;;7.35;1.23;;;;;;;16.77;34.86;93428.22;5140307;27;20100;-80
2021/05/14 09:18:11;;;;;;;2.40;0.60;;;;;;;16.86;36.95;93436.88;5127886;27;20106;-81
2021/05/14 09:20:39;;;;;;;2.70;0.65;;;;;;;16.90;36.40;93424.25;5126695;27;20035;-78
2021/05/14 09:23:35;;;;;;;1.95;0.52;;;;;;;17.03;35.12;93428.25;5125875;27;20343;-82
2021/05/14 09:26:08;;;;;;;2.40;0.68;;;;;;;17.00;35.42;93434.38;5124597;27;20042;-82
2021/05/14 09:28:47;;;;;;;3.25;0.82;;;;;;;17.19;36.77;93435.41;5126940;27;20035;-83
2021/05/14 09:31:15;;;;;;;1.17;0.70;;;;;;;17.37;35.75;93430.25;5128800;27;20129;-82
2021/05/14 09:33:46;;;;;;;3.65;0.70;;;;;;;17.58;34.11;93438.56;5117136;27;20031;-83
2021/05/14 09:36:16;;;;;;;1.85;0.68;;;;;;;17.38;34.06;93429.09;5125703;27;20042;-82
2021/05/14 09:38:50;;;;;;;2.03;0.60;;;;;;;17.53;35.01;93430.06;5127685;27;20489;-84
2021/05/14 09:41:31;;;;;;;1.73;0.70;;;;;;;17.71;35.19;93430.22;5121900;27;20395;-82
2021/05/14 09:43:58;;;;;;;1.45;0.50;;;;;;;17.83;36.58;93438.13;5128235;28;21199;-83
2021/05/14 09:46:25;;;;;;;4.65;0.80;;;;;;;17.98;35.41;93436.34;5127419;27;20027;-83
2021/05/14 09:48:57;;;;;;;2.85;0.75;;;;;;;18.11;34.94;93424.13;5132210;27;20034;-83
2021/05/14 09:51:22;;;;;;;1.02;0.50;;;;;;;18.21;34.14;93439.63;5130948;27;20027;-82
2021/05/14 09:53:48;;;;;;;1.95;0.60;;;;;;;18.10;33.90;93417.19;5139982;27;20038;-82
2021/05/14 09:56:26;;;;;;;1.50;0.50;;;;;;;18.06;33.84;93427.19;5133433;27;20023;-83
2021/05/14 09:58:54;;;;;;;1.95;0.80;;;;;;;17.80;35.41;93418.03;5129707;27;20024;-82
2021/05/14 10:01:19;;;;;;;1.77;0.57;;;;;;;17.65;37.04;93425.19;5131145;27;20413;-82
2021/05/14 10:03:47;;;;;;;5.78;0.95;;;;;;;17.29;38.61;93429.38;5131310;27;20106;-83
2021/05/14 10:06:12;;;;;;;9.23;0.88;;;;;;;17.06;38.14;93442.91;5125152;27;20034;-82
2021/05/14 10:08:39;;;;;;;1.95;0.82;;;;;;;16.60;40.47;93456.44;5132784;27;20031;-82
2021/05/14 10:11:05;;;;;;;4.82;0.88;;;;;;;16.17;45.51;93453.81;5121313;27;20525;-82
2021/05/14 10:13:31;;;;;;;9.50;1.00;;;;;;;15.88;45.48;93465.97;5131740;27;20076;-82
2021/05/14 10:16:03;;;;;;;4.80;0.70;;;;;;;15.77;43.11;93462.28;5128650;27;20027;-82
2021/05/14 10:18:29;;;;;;;6.63;1.20;;;;;;;15.73;46.56;93451.47;5136327;27;20027;-82
2021/05/14 10:20:57;;;;;;;5.15;0.93;;;;;;;15.88;47.74;93457.13;5130739;27;20291;-82
2021/05/14 10:23:28;;;;;;;12.40;0.82;;;;;;;15.96;47.07;93454.22;5132506;27;20031;-82
2021/05/14 10:25:54;;;;;;;2.80;0.55;;;;;;;16.05;46.82;93453.97;5126925;27;20098;-82
2021/05/14 10:28:23;;;;;;;5.22;1.52;;;;;;;15.98;46.75;93451.19;5128941;27;20050;-82
2021/05/14 10:30:58;;;;;;;4.05;2.17;;;;;;;16.16;47.88;93452.28;5131927;27;20055;-81
2021/05/14 10:33:41;;;;;;;6.05;1.92;;;;;;;16.29;48.06;93450.19;5132308;27;20126;-82
2021/05/14 10:36:38;;;;;;;6.60;1.17;;;;;;;16.47;44.21;93450.47;5131048;27;20031;-83
2021/05/14 10:39:15;;;;;;;7.38;0.93;;;;;;;16.83;44.26;93443.75;5130277;27;20033;-85
2021/05/14 10:41:48;;;;;;;6.90;0.60;;;;;;;17.14;42.08;93447.25;5132387;27;20478;-81
2021/05/14 10:44:14;;;;;;;2.78;1.13;;;;;;;17.25;38.77;93423.94;5129916;27;20019;-80
2021/05/14 10:46:39;;;;;;;2.35;0.68;;;;;;;17.34;39.82;93428.25;5131904;27;20043;-78
2021/05/14 10:49:07;;;;;;;3.22;0.80;;;;;;;17.25;39.77;93429.31;5124068;27;20062;-76
2021/05/14 10:51:48;;;;;;;8.52;0.90;;;;;;;17.35;41.51;93436.00;5127938;27;20118;-77
2021/05/14 10:54:48;;;;;;;4.90;1.17;;;;;;;17.37;41.35;93438.31;5128400;27;20031;-75
2021/05/14 10:57:14;;;;;;;5.05;0.63;;;;;;;17.72;39.58;93435.25;5128821;27;20096;-74
2021/05/14 10:59:41;;;;;;;4.63;0.70;;;;;;;17.99;35.21;93444.06;5133161;27;20144;-75
2021/05/14 11:02:30;;;;;;;4.20;0.77;;;;;;;18.05;35.60;93436.41;5148750;27;20034;-77
2021/05/14 11:04:56;;;;;;;5.68;0.80;;;;;;;18.00;35.53;93428.66;5142842;27;20513;-77
2021/05/14 11:07:35;;;;;;;5.95;1.13;;;;;;;18.07;37.15;93427.94;5120412;27;20039;-78
2021/05/14 11:10:13;;;;;;;4.93;0.60;;;;;;;18.17;37.37;93427.28;5127271;27;20019;-77
2021/05/14 11:12:43;;;;;;;5.75;0.80;;;;;;;18.06;36.01;93448.00;5119080;27;20451;-75
2021/05/14 11:15:21;;;;;;;11.13;2.47;;;;;;;17.96;39.91;93435.94;5122032;27;20027;-77
2021/05/14 11:18:14;;;;;;;23.10;2.10;;;;;;;17.80;39.19;93447.66;5130066;27;20038;-74
2021/05/14 11:20:47;;;;;;;8.35;1.40;;;;;;;17.64;38.87;93444.41;5121024;27;20431;-75
2021/05/14 11:23:40;;;;;;;5.25;1.10;;;;;;;17.74;39.58;93457.22;5127888;27;20019;-77
2021/05/14 11:26:16;;;;;;;;;;;;;;;17.89;39.14;93452.03;5113692;27;20044;-76
2021/05/14 11:28:51;;;;;;;4.50;0.70;;;;;;;18.06;37.07;93432.56;5131763;27;19984;-77
2021/05/14 11:31:22;;;;;;;5.80;1.10;;;;;;;18.28;35.24;93443.53;5129424;27;20045;-80
2021/05/14 11:33:49;;;;;;;1.58;0.55;;;;;;;18.60;33.61;93428.44;5112601;27;20097;-75
2021/05/14 11:36:15;;;;;;;5.80;1.00;;;;;;;18.90;32.80;93432.13;5128610;27;20086;-73
2021/05/14 11:38:56;;;;;;;0.82;0.40;;;;;;;19.16;27.97;93414.94;5119326;27;20487;-81